sensor_id;sensor_type;location;lat;lon;timestamp;temperature;humidity
42965;DHT22;28604;51.204;22.552;2023-02-03T00:00:37;0.80;91.90
42965;DHT22;28604;51.204;22.552;2023-02-03T00:03:23;0.80;91.90
42965;DHT22;28604;51.204;22.552;2023-02-03T00:05:49;0.80;91.90
42965;DHT22;28604;51.204;22.552;2023-02-03T00:08:16;0.80;92.00
42965;DHT22;28604;51.204;22.552;2023-02-03T00:10:43;0.80;91.90
42965;DHT22;28604;51.204;22.552;2023-02-03T00:13:09;0.70;91.90
42965;DHT22;28604;51.204;22.552;2023-02-03T00:15:35;0.70;92.00
42965;DHT22;28604;51.204;22.552;2023-02-03T00:18:01;0.70;92.00
42965;DHT22;28604;51.204;22.552;2023-02-03T00:20:27;0.60;92.10
42965;DHT22;28604;51.204;22.552;2023-02-03T00:23:07;0.60;92.00
42965;DHT22;28604;51.204;22.552;2023-02-03T00:25:33;0.60;92.10
42965;DHT22;28604;51.204;22.552;2023-02-03T00:27:59;0.60;92.20
42965;DHT22;28604;51.204;22.552;2023-02-03T00:30:25;0.60;92.20
42965;DHT22;28604;51.204;22.552;2023-02-03T00:32:51;0.50;92.10
42965;DHT22;28604;51.204;22.552;2023-02-03T00:35:17;0.50;92.30
42965;DHT22;28604;51.204;22.552;2023-02-03T00:37:43;0.50;92.40
42965;DHT22;28604;51.204;22.552;2023-02-03T00:40:15;0.50;92.30
42965;DHT22;28604;51.204;22.552;2023-02-03T00:42:41;0.60;92.40
42965;DHT22;28604;51.204;22.552;2023-02-03T00:45:07;0.60;92.30
42965;DHT22;28604;51.204;22.552;2023-02-03T00:47:33;0.60;92.30
42965;DHT22;28604;51.204;22.552;2023-02-03T00:49:59;0.60;92.20
42965;DHT22;28604;51.204;22.552;2023-02-03T00:52:25;0.60;92.30
42965;DHT22;28604;51.204;22.552;2023-02-03T00:54:51;0.60;92.30
42965;DHT22;28604;51.204;22.552;2023-02-03T00:57:17;0.60;92.20
42965;DHT22;28604;51.204;22.552;2023-02-03T00:59:43;0.60;92.10
42965;DHT22;28604;51.204;22.552;2023-02-03T01:02:09;0.60;92.10
42965;DHT22;28604;51.204;22.552;2023-02-03T01:04:35;0.50;92.00
42965;DHT22;28604;51.204;22.552;2023-02-03T01:07:03;0.50;92.10
42965;DHT22;28604;51.204;22.552;2023-02-03T01:09:32;0.50;92.10
42965;DHT22;28604;51.204;22.552;2023-02-03T01:11:59;0.50;92.20
42965;DHT22;28604;51.204;22.552;2023-02-03T01:14:25;0.50;92.20
42965;DHT22;28604;51.204;22.552;2023-02-03T01:16:51;0.50;92.20
42965;DHT22;28604;51.204;22.552;2023-02-03T01:19:17;0.40;92.30
42965;DHT22;28604;51.204;22.552;2023-02-03T01:21:44;0.40;92.20
42965;DHT22;28604;51.204;22.552;2023-02-03T01:24:09;0.40;92.30
42965;DHT22;28604;51.204;22.552;2023-02-03T01:26:38;0.40;92.60
42965;DHT22;28604;51.204;22.552;2023-02-03T01:29:04;0.40;92.40
42965;DHT22;28604;51.204;22.552;2023-02-03T01:31:35;0.40;92.40
42965;DHT22;28604;51.204;22.552;2023-02-03T01:34:07;0.30;92.40
42965;DHT22;28604;51.204;22.552;2023-02-03T01:36:36;0.30;92.40
42965;DHT22;28604;51.204;22.552;2023-02-03T01:39:03;0.30;92.40
42965;DHT22;28604;51.204;22.552;2023-02-03T01:41:32;0.30;92.40
42965;DHT22;28604;51.204;22.552;2023-02-03T01:43:59;0.30;92.40
42965;DHT22;28604;51.204;22.552;2023-02-03T01:46:37;0.40;92.30
42965;DHT22;28604;51.204;22.552;2023-02-03T01:49:18;0.40;92.30
42965;DHT22;28604;51.204;22.552;2023-02-03T01:51:46;0.40;92.30
42965;DHT22;28604;51.204;22.552;2023-02-03T01:54:16;0.40;92.30
42965;DHT22;28604;51.204;22.552;2023-02-03T01:56:47;0.30;92.20
42965;DHT22;28604;51.204;22.552;2023-02-03T01:59:18;0.30;92.20
42965;DHT22;28604;51.204;22.552;2023-02-03T02:01:45;0.30;92.20
42965;DHT22;28604;51.204;22.552;2023-02-03T02:04:11;0.30;92.20
42965;DHT22;28604;51.204;22.552;2023-02-03T02:06:37;0.30;92.10
42965;DHT22;28604;51.204;22.552;2023-02-03T02:09:03;0.30;92.30
42965;DHT22;28604;51.204;22.552;2023-02-03T02:11:30;0.30;92.20
42965;DHT22;28604;51.204;22.552;2023-02-03T02:13:59;0.20;92.30
42965;DHT22;28604;51.204;22.552;2023-02-03T02:30:42;0.20;92.20
42965;DHT22;28604;51.204;22.552;2023-02-03T02:36:04;0.20;92.10
42965;DHT22;28604;51.204;22.552;2023-02-03T02:38:40;0.10;92.20
42965;DHT22;28604;51.204;22.552;2023-02-03T02:41:18;0.10;92.10
42965;DHT22;28604;51.204;22.552;2023-02-03T02:44:03;0.10;92.20
42965;DHT22;28604;51.204;22.552;2023-02-03T02:46:47;0.10;92.20
42965;DHT22;28604;51.204;22.552;2023-02-03T02:49:19;0.10;92.20
42965;DHT22;28604;51.204;22.552;2023-02-03T02:51:47;0.00;92.20
42965;DHT22;28604;51.204;22.552;2023-02-03T02:54:22;0.00;92.20
42965;DHT22;28604;51.204;22.552;2023-02-03T02:56:55;0.00;92.20
42965;DHT22;28604;51.204;22.552;2023-02-03T02:59:23;0.00;92.30
42965;DHT22;28604;51.204;22.552;2023-02-03T03:01:49;0.00;92.30
42965;DHT22;28604;51.204;22.552;2023-02-03T03:04:22;0.00;92.60
42965;DHT22;28604;51.204;22.552;2023-02-03T03:06:57;0.10;92.50
42965;DHT22;28604;51.204;22.552;2023-02-03T03:09:28;0.10;92.50
42965;DHT22;28604;51.204;22.552;2023-02-03T03:12:14;0.10;92.70
42965;DHT22;28604;51.204;22.552;2023-02-03T03:14:52;0.10;92.60
42965;DHT22;28604;51.204;22.552;2023-02-03T03:17:24;0.20;92.70
42965;DHT22;28604;51.204;22.552;2023-02-03T03:19:52;0.20;92.60
42965;DHT22;28604;51.204;22.552;2023-02-03T03:22:33;0.30;92.60
42965;DHT22;28604;51.204;22.552;2023-02-03T03:25:45;0.30;92.70
42965;DHT22;28604;51.204;22.552;2023-02-03T03:28:22;0.30;92.50
42965;DHT22;28604;51.204;22.552;2023-02-03T03:30:51;0.40;92.40
42965;DHT22;28604;51.204;22.552;2023-02-03T03:33:19;0.40;92.40
42965;DHT22;28604;51.204;22.552;2023-02-03T03:35:58;0.40;92.40
42965;DHT22;28604;51.204;22.552;2023-02-03T03:38:40;0.40;92.40
42965;DHT22;28604;51.204;22.552;2023-02-03T03:41:15;0.40;92.50
42965;DHT22;28604;51.204;22.552;2023-02-03T03:43:44;0.40;92.50
42965;DHT22;28604;51.204;22.552;2023-02-03T03:46:26;0.50;92.40
42965;DHT22;28604;51.204;22.552;2023-02-03T03:48:58;0.40;92.30
42965;DHT22;28604;51.204;22.552;2023-02-03T03:51:30;0.40;92.40
42965;DHT22;28604;51.204;22.552;2023-02-03T03:54:02;0.40;92.30
42965;DHT22;28604;51.204;22.552;2023-02-03T03:56:38;0.50;92.20
42965;DHT22;28604;51.204;22.552;2023-02-03T03:59:06;0.50;92.20
42965;DHT22;28604;51.204;22.552;2023-02-03T04:01:34;0.50;92.20
42965;DHT22;28604;51.204;22.552;2023-02-03T04:04:02;0.50;92.10
42965;DHT22;28604;51.204;22.552;2023-02-03T04:06:31;0.50;92.20
42965;DHT22;28604;51.204;22.552;2023-02-03T04:08:56;0.50;92.10
42965;DHT22;28604;51.204;22.552;2023-02-03T04:11:22;0.50;91.90
42965;DHT22;28604;51.204;22.552;2023-02-03T04:14:07;0.50;92.00
42965;DHT22;28604;51.204;22.552;2023-02-03T04:16:33;0.60;92.00
42965;DHT22;28604;51.204;22.552;2023-02-03T04:18:59;0.60;92.00
42965;DHT22;28604;51.204;22.552;2023-02-03T04:21:25;0.50;91.80
42965;DHT22;28604;51.204;22.552;2023-02-03T04:23:50;0.50;91.80
42965;DHT22;28604;51.204;22.552;2023-02-03T04:26:17;0.60;92.20
42965;DHT22;28604;51.204;22.552;2023-02-03T04:28:43;0.60;91.80
42965;DHT22;28604;51.204;22.552;2023-02-03T04:31:09;0.60;91.90
42965;DHT22;28604;51.204;22.552;2023-02-03T04:33:35;0.60;91.90
42965;DHT22;28604;51.204;22.552;2023-02-03T04:36:01;0.60;91.80
42965;DHT22;28604;51.204;22.552;2023-02-03T04:38:27;0.60;91.70
42965;DHT22;28604;51.204;22.552;2023-02-03T04:40:53;0.60;91.70
42965;DHT22;28604;51.204;22.552;2023-02-03T04:43:19;0.60;92.00
42965;DHT22;28604;51.204;22.552;2023-02-03T04:45:45;0.60;91.80
42965;DHT22;28604;51.204;22.552;2023-02-03T04:48:11;0.70;91.80
42965;DHT22;28604;51.204;22.552;2023-02-03T04:50:37;0.70;91.70
42965;DHT22;28604;51.204;22.552;2023-02-03T04:53:02;0.70;91.70
42965;DHT22;28604;51.204;22.552;2023-02-03T04:55:28;0.70;91.70
42965;DHT22;28604;51.204;22.552;2023-02-03T04:57:59;0.60;91.60
42965;DHT22;28604;51.204;22.552;2023-02-03T05:00:26;0.70;91.70
42965;DHT22;28604;51.204;22.552;2023-02-03T05:02:53;0.60;91.70
42965;DHT22;28604;51.204;22.552;2023-02-03T05:05:19;0.70;91.50
42965;DHT22;28604;51.204;22.552;2023-02-03T05:07:45;0.60;91.70
42965;DHT22;28604;51.204;22.552;2023-02-03T05:10:12;0.70;91.70
42965;DHT22;28604;51.204;22.552;2023-02-03T05:12:38;0.60;91.60
42965;DHT22;28604;51.204;22.552;2023-02-03T05:15:04;0.60;91.70
42965;DHT22;28604;51.204;22.552;2023-02-03T05:17:30;0.60;91.80
42965;DHT22;28604;51.204;22.552;2023-02-03T05:19:56;0.60;91.70
42965;DHT22;28604;51.204;22.552;2023-02-03T05:22:22;0.60;91.60
42965;DHT22;28604;51.204;22.552;2023-02-03T05:24:48;0.60;91.70
42965;DHT22;28604;51.204;22.552;2023-02-03T05:27:14;0.50;91.70
42965;DHT22;28604;51.204;22.552;2023-02-03T05:29:40;0.60;91.70
42965;DHT22;28604;51.204;22.552;2023-02-03T05:32:06;0.60;91.70
42965;DHT22;28604;51.204;22.552;2023-02-03T05:34:32;0.60;91.80
42965;DHT22;28604;51.204;22.552;2023-02-03T05:36:57;0.60;91.80
42965;DHT22;28604;51.204;22.552;2023-02-03T05:39:24;0.70;92.00
42965;DHT22;28604;51.204;22.552;2023-02-03T05:41:50;0.70;91.90
42965;DHT22;28604;51.204;22.552;2023-02-03T05:44:24;0.70;92.30
42965;DHT22;28604;51.204;22.552;2023-02-03T05:46:52;0.60;92.30
42965;DHT22;28604;51.204;22.552;2023-02-03T05:49:18;0.70;92.40
42965;DHT22;28604;51.204;22.552;2023-02-03T05:51:45;0.70;92.40
42965;DHT22;28604;51.204;22.552;2023-02-03T05:54:12;0.70;92.30
42965;DHT22;28604;51.204;22.552;2023-02-03T05:56:38;0.60;92.50
42965;DHT22;28604;51.204;22.552;2023-02-03T05:59:04;0.70;92.30
42965;DHT22;28604;51.204;22.552;2023-02-03T06:01:31;0.70;92.30
42965;DHT22;28604;51.204;22.552;2023-02-03T06:03:58;0.70;92.20
42965;DHT22;28604;51.204;22.552;2023-02-03T06:06:23;0.70;92.10
42965;DHT22;28604;51.204;22.552;2023-02-03T06:08:49;0.70;92.20
42965;DHT22;28604;51.204;22.552;2023-02-03T06:11:21;0.70;92.00
42965;DHT22;28604;51.204;22.552;2023-02-03T06:13:49;0.60;92.10
42965;DHT22;28604;51.204;22.552;2023-02-03T06:16:15;0.60;91.90
42965;DHT22;28604;51.204;22.552;2023-02-03T06:18:42;0.70;91.90
42965;DHT22;28604;51.204;22.552;2023-02-03T06:21:07;0.70;91.90
42965;DHT22;28604;51.204;22.552;2023-02-03T06:23:33;0.70;91.70
42965;DHT22;28604;51.204;22.552;2023-02-03T06:25:59;0.70;91.70
42965;DHT22;28604;51.204;22.552;2023-02-03T06:28:26;0.60;91.70
42965;DHT22;28604;51.204;22.552;2023-02-03T06:30:52;0.60;91.60
42965;DHT22;28604;51.204;22.552;2023-02-03T06:33:21;0.60;91.70
42965;DHT22;28604;51.204;22.552;2023-02-03T06:35:47;0.50;91.50
42965;DHT22;28604;51.204;22.552;2023-02-03T06:38:13;0.50;91.60
42965;DHT22;28604;51.204;22.552;2023-02-03T06:40:39;0.50;91.70
42965;DHT22;28604;51.204;22.552;2023-02-03T06:43:05;0.50;91.70
42965;DHT22;28604;51.204;22.552;2023-02-03T06:45:30;0.50;91.80
42965;DHT22;28604;51.204;22.552;2023-02-03T06:47:57;0.60;92.10
42965;DHT22;28604;51.204;22.552;2023-02-03T06:50:22;0.50;91.80
42965;DHT22;28604;51.204;22.552;2023-02-03T06:52:49;0.60;91.80
42965;DHT22;28604;51.204;22.552;2023-02-03T06:55:14;0.50;91.70
42965;DHT22;28604;51.204;22.552;2023-02-03T06:57:45;0.60;91.70
42965;DHT22;28604;51.204;22.552;2023-02-03T07:00:12;0.60;91.60
42965;DHT22;28604;51.204;22.552;2023-02-03T07:02:38;0.70;91.60
42965;DHT22;28604;51.204;22.552;2023-02-03T07:05:05;0.70;91.70
42965;DHT22;28604;51.204;22.552;2023-02-03T07:07:31;0.70;91.60
42965;DHT22;28604;51.204;22.552;2023-02-03T07:09:59;0.70;91.50
42965;DHT22;28604;51.204;22.552;2023-02-03T07:12:27;0.70;91.60
42965;DHT22;28604;51.204;22.552;2023-02-03T07:15:01;0.80;91.50
42965;DHT22;28604;51.204;22.552;2023-02-03T07:17:31;0.80;91.40
42965;DHT22;28604;51.204;22.552;2023-02-03T07:20:03;0.90;91.40
42965;DHT22;28604;51.204;22.552;2023-02-03T07:22:29;0.90;91.50
42965;DHT22;28604;51.204;22.552;2023-02-03T07:24:55;0.90;91.30
42965;DHT22;28604;51.204;22.552;2023-02-03T07:27:21;0.90;91.40
42965;DHT22;28604;51.204;22.552;2023-02-03T07:29:47;0.90;91.50
42965;DHT22;28604;51.204;22.552;2023-02-03T07:32:13;1.00;91.70
42965;DHT22;28604;51.204;22.552;2023-02-03T07:34:39;1.00;91.80
42965;DHT22;28604;51.204;22.552;2023-02-03T07:37:05;1.10;91.40
42965;DHT22;28604;51.204;22.552;2023-02-03T07:39:31;1.10;91.60
42965;DHT22;28604;51.204;22.552;2023-02-03T07:41:58;1.20;91.90
42965;DHT22;28604;51.204;22.552;2023-02-03T07:44:27;1.30;91.60
42965;DHT22;28604;51.204;22.552;2023-02-03T07:46:53;1.40;91.70
42965;DHT22;28604;51.204;22.552;2023-02-03T07:49:18;1.50;91.30
42965;DHT22;28604;51.204;22.552;2023-02-03T07:51:45;1.50;91.20
42965;DHT22;28604;51.204;22.552;2023-02-03T07:54:10;1.60;91.20
42965;DHT22;28604;51.204;22.552;2023-02-03T07:56:40;1.70;91.00
42965;DHT22;28604;51.204;22.552;2023-02-03T07:59:06;1.80;90.90
42965;DHT22;28604;51.204;22.552;2023-02-03T08:01:32;1.80;90.80
42965;DHT22;28604;51.204;22.552;2023-02-03T08:03:58;2.00;91.10
42965;DHT22;28604;51.204;22.552;2023-02-03T08:06:27;2.10;91.50
42965;DHT22;28604;51.204;22.552;2023-02-03T08:08:55;2.20;90.20
42965;DHT22;28604;51.204;22.552;2023-02-03T08:11:21;2.30;90.30
42965;DHT22;28604;51.204;22.552;2023-02-03T08:13:47;2.50;89.90
42965;DHT22;28604;51.204;22.552;2023-02-03T08:16:13;2.70;90.00
42965;DHT22;28604;51.204;22.552;2023-02-03T08:18:39;2.50;89.00
42965;DHT22;28604;51.204;22.552;2023-02-03T08:21:05;2.60;90.10
42965;DHT22;28604;51.204;22.552;2023-02-03T08:23:31;2.80;89.90
42965;DHT22;28604;51.204;22.552;2023-02-03T08:25:57;3.10;89.20
42965;DHT22;28604;51.204;22.552;2023-02-03T08:28:23;3.30;87.80
42965;DHT22;28604;51.204;22.552;2023-02-03T08:30:49;3.60;90.00
42965;DHT22;28604;51.204;22.552;2023-02-03T08:33:15;3.90;85.00
42965;DHT22;28604;51.204;22.552;2023-02-03T08:35:45;4.10;85.90
42965;DHT22;28604;51.204;22.552;2023-02-03T08:38:11;4.40;82.80
42965;DHT22;28604;51.204;22.552;2023-02-03T08:40:37;4.80;82.70
42965;DHT22;28604;51.204;22.552;2023-02-03T08:43:03;5.20;81.00
42965;DHT22;28604;51.204;22.552;2023-02-03T08:45:29;5.60;80.60
42965;DHT22;28604;51.204;22.552;2023-02-03T08:47:56;6.10;80.60
42965;DHT22;28604;51.204;22.552;2023-02-03T08:50:22;6.30;75.70
42965;DHT22;28604;51.204;22.552;2023-02-03T08:52:48;6.50;75.30
42965;DHT22;28604;51.204;22.552;2023-02-03T08:55:14;6.70;75.20
42965;DHT22;28604;51.204;22.552;2023-02-03T08:57:40;6.70;71.80
42965;DHT22;28604;51.204;22.552;2023-02-03T09:00:08;6.60;72.20
42965;DHT22;28604;51.204;22.552;2023-02-03T09:02:34;6.30;70.20
42965;DHT22;28604;51.204;22.552;2023-02-03T09:05:01;6.20;72.30
42965;DHT22;28604;51.204;22.552;2023-02-03T09:07:27;6.10;73.20
42965;DHT22;28604;51.204;22.552;2023-02-03T09:09:53;5.90;73.10
42965;DHT22;28604;51.204;22.552;2023-02-03T09:12:19;5.40;70.90
42965;DHT22;28604;51.204;22.552;2023-02-03T09:14:45;5.00;71.60
42965;DHT22;28604;51.204;22.552;2023-02-03T09:17:10;4.70;75.00
42965;DHT22;28604;51.204;22.552;2023-02-03T09:19:37;4.50;73.10
42965;DHT22;28604;51.204;22.552;2023-02-03T09:22:03;4.30;73.30
42965;DHT22;28604;51.204;22.552;2023-02-03T09:24:29;4.10;73.30
42965;DHT22;28604;51.204;22.552;2023-02-03T09:26:56;4.10;76.60
42965;DHT22;28604;51.204;22.552;2023-02-03T09:29:22;4.10;77.20
42965;DHT22;28604;51.204;22.552;2023-02-03T09:31:49;4.20;75.60
42965;DHT22;28604;51.204;22.552;2023-02-03T09:34:18;4.10;73.80
42965;DHT22;28604;51.204;22.552;2023-02-03T09:36:45;3.90;75.40
42965;DHT22;28604;51.204;22.552;2023-02-03T09:39:12;3.80;75.50
42965;DHT22;28604;51.204;22.552;2023-02-03T09:44:32;3.80;74.80
42965;DHT22;28604;51.204;22.552;2023-02-03T09:47:03;3.90;75.00
42965;DHT22;28604;51.204;22.552;2023-02-03T09:49:42;3.90;73.40
42965;DHT22;28604;51.204;22.552;2023-02-03T09:52:14;3.90;74.80
42965;DHT22;28604;51.204;22.552;2023-02-03T09:58:00;3.90;73.70
42965;DHT22;28604;51.204;22.552;2023-02-03T10:00:43;4.00;74.90
42965;DHT22;28604;51.204;22.552;2023-02-03T10:03:31;4.00;72.70
42965;DHT22;28604;51.204;22.552;2023-02-03T10:06:15;4.10;74.30
42965;DHT22;28604;51.204;22.552;2023-02-03T10:08:59;4.20;77.70
42965;DHT22;28604;51.204;22.552;2023-02-03T10:14:13;4.20;72.80
42965;DHT22;28604;51.204;22.552;2023-02-03T10:17:11;4.10;72.20
42965;DHT22;28604;51.204;22.552;2023-02-03T10:22:45;4.10;74.10
42965;DHT22;28604;51.204;22.552;2023-02-03T10:25:37;4.00;73.90
42965;DHT22;28604;51.204;22.552;2023-02-03T10:28:18;3.80;72.20
42965;DHT22;28604;51.204;22.552;2023-02-03T10:30:59;3.70;71.70
42965;DHT22;28604;51.204;22.552;2023-02-03T10:33:28;3.70;75.90
42965;DHT22;28604;51.204;22.552;2023-02-03T10:41:21;3.70;75.50
42965;DHT22;28604;51.204;22.552;2023-02-03T10:43:49;3.80;77.30
42965;DHT22;28604;51.204;22.552;2023-02-03T10:46:28;3.70;75.80
42965;DHT22;28604;51.204;22.552;2023-02-03T10:48:55;3.80;78.10
42965;DHT22;28604;51.204;22.552;2023-02-03T10:51:31;3.90;76.40
42965;DHT22;28604;51.204;22.552;2023-02-03T10:53:59;4.00;75.40
42965;DHT22;28604;51.204;22.552;2023-02-03T10:56:29;4.00;75.90
42965;DHT22;28604;51.204;22.552;2023-02-03T10:58:58;4.00;75.60
42965;DHT22;28604;51.204;22.552;2023-02-03T11:01:41;4.00;76.20
42965;DHT22;28604;51.204;22.552;2023-02-03T11:06:56;4.30;75.30
42965;DHT22;28604;51.204;22.552;2023-02-03T11:09:37;4.40;75.60
42965;DHT22;28604;51.204;22.552;2023-02-03T11:12:11;4.40;76.30
42965;DHT22;28604;51.204;22.552;2023-02-03T11:14:46;4.50;75.00
42965;DHT22;28604;51.204;22.552;2023-02-03T11:17:20;4.50;76.40
42965;DHT22;28604;51.204;22.552;2023-02-03T11:19:50;4.50;76.60
42965;DHT22;28604;51.204;22.552;2023-02-03T11:22:30;4.50;73.90
42965;DHT22;28604;51.204;22.552;2023-02-03T11:24:58;4.60;74.60
42965;DHT22;28604;51.204;22.552;2023-02-03T11:27:24;4.50;74.90
42965;DHT22;28604;51.204;22.552;2023-02-03T11:32:38;4.60;76.70
42965;DHT22;28604;51.204;22.552;2023-02-03T11:35:24;4.60;76.50
42965;DHT22;28604;51.204;22.552;2023-02-03T11:37:54;4.60;76.50
42965;DHT22;28604;51.204;22.552;2023-02-03T11:40:25;4.80;78.00
42965;DHT22;28604;51.204;22.552;2023-02-03T11:48:28;5.00;77.20
42965;DHT22;28604;51.204;22.552;2023-02-03T11:56:25;5.10;74.50
42965;DHT22;28604;51.204;22.552;2023-02-03T12:01:51;5.00;75.00
42965;DHT22;28604;51.204;22.552;2023-02-03T12:07:55;4.80;75.00
42965;DHT22;28604;51.204;22.552;2023-02-03T12:13:14;4.70;76.00
42965;DHT22;28604;51.204;22.552;2023-02-03T12:21:42;4.30;74.60
42965;DHT22;28604;51.204;22.552;2023-02-03T12:24:24;4.30;76.70
42965;DHT22;28604;51.204;22.552;2023-02-03T12:29:35;4.20;76.20
42965;DHT22;28604;51.204;22.552;2023-02-03T12:32:22;4.10;77.50
42965;DHT22;28604;51.204;22.552;2023-02-03T12:34:57;4.10;77.20
42965;DHT22;28604;51.204;22.552;2023-02-03T12:37:28;4.00;76.50
42965;DHT22;28604;51.204;22.552;2023-02-03T12:40:01;4.00;76.50
42965;DHT22;28604;51.204;22.552;2023-02-03T12:42:56;4.00;77.00
42965;DHT22;28604;51.204;22.552;2023-02-03T12:45:27;4.10;77.50
42965;DHT22;28604;51.204;22.552;2023-02-03T12:47:55;4.00;77.80
42965;DHT22;28604;51.204;22.552;2023-02-03T12:50:44;4.10;77.90
42965;DHT22;28604;51.204;22.552;2023-02-03T12:53:15;4.20;77.50
42965;DHT22;28604;51.204;22.552;2023-02-03T12:55:46;4.20;78.80
42965;DHT22;28604;51.204;22.552;2023-02-03T12:58:39;4.30;78.10
42965;DHT22;28604;51.204;22.552;2023-02-03T13:01:37;4.30;79.70
42965;DHT22;28604;51.204;22.552;2023-02-03T13:04:28;4.30;77.60
42965;DHT22;28604;51.204;22.552;2023-02-03T13:07:07;4.20;78.50
42965;DHT22;28604;51.204;22.552;2023-02-03T13:09:58;4.20;78.30
42965;DHT22;28604;51.204;22.552;2023-02-03T13:12:40;4.20;77.70
42965;DHT22;28604;51.204;22.552;2023-02-03T13:15:29;4.10;77.40
42965;DHT22;28604;51.204;22.552;2023-02-03T13:20:45;3.90;76.30
42965;DHT22;28604;51.204;22.552;2023-02-03T13:23:14;3.80;78.00
42965;DHT22;28604;51.204;22.552;2023-02-03T13:26:06;3.80;78.00
42965;DHT22;28604;51.204;22.552;2023-02-03T13:29:09;3.80;78.40
42965;DHT22;28604;51.204;22.552;2023-02-03T13:40:19;3.60;79.20
42965;DHT22;28604;51.204;22.552;2023-02-03T13:42:56;3.50;78.10
42965;DHT22;28604;51.204;22.552;2023-02-03T13:45:30;3.50;78.70
42965;DHT22;28604;51.204;22.552;2023-02-03T13:50:38;3.40;79.30
42965;DHT22;28604;51.204;22.552;2023-02-03T13:53:05;3.40;79.90
42965;DHT22;28604;51.204;22.552;2023-02-03T13:55:36;3.30;79.90
42965;DHT22;28604;51.204;22.552;2023-02-03T13:58:04;3.20;78.90
42965;DHT22;28604;51.204;22.552;2023-02-03T14:03:17;3.30;79.90
42965;DHT22;28604;51.204;22.552;2023-02-03T14:05:45;3.20;78.00
42965;DHT22;28604;51.204;22.552;2023-02-03T14:16:43;2.90;79.70
42965;DHT22;28604;51.204;22.552;2023-02-03T14:22:08;2.80;79.60
42965;DHT22;28604;51.204;22.552;2023-02-03T14:24:43;2.80;80.50
42965;DHT22;28604;51.204;22.552;2023-02-03T14:27:29;2.80;80.40
42965;DHT22;28604;51.204;22.552;2023-02-03T14:30:11;2.70;77.80
42965;DHT22;28604;51.204;22.552;2023-02-03T14:32:55;2.70;80.70
42965;DHT22;28604;51.204;22.552;2023-02-03T14:35:31;2.70;81.20
42965;DHT22;28604;51.204;22.552;2023-02-03T14:38:01;2.30;77.70
42965;DHT22;28604;51.204;22.552;2023-02-03T14:40:34;2.40;80.60
42965;DHT22;28604;51.204;22.552;2023-02-03T14:46:14;2.40;80.50
42965;DHT22;28604;51.204;22.552;2023-02-03T14:49:02;2.30;80.70
42965;DHT22;28604;51.204;22.552;2023-02-03T14:54:44;2.20;80.40
42965;DHT22;28604;51.204;22.552;2023-02-03T14:59:53;2.20;80.40
42965;DHT22;28604;51.204;22.552;2023-02-03T15:02:23;2.20;80.40
42965;DHT22;28604;51.204;22.552;2023-02-03T15:07:47;2.10;82.00
42965;DHT22;28604;51.204;22.552;2023-02-03T15:10:23;2.00;81.20
42965;DHT22;28604;51.204;22.552;2023-02-03T15:12:53;2.00;80.00
42965;DHT22;28604;51.204;22.552;2023-02-03T15:17:50;2.00;82.10
42965;DHT22;28604;51.204;22.552;2023-02-03T15:20:35;1.90;81.10
42965;DHT22;28604;51.204;22.552;2023-02-03T15:23:21;1.90;82.00
42965;DHT22;28604;51.204;22.552;2023-02-03T15:25:56;1.80;80.50
42965;DHT22;28604;51.204;22.552;2023-02-03T15:28:24;1.80;81.60
42965;DHT22;28604;51.204;22.552;2023-02-03T15:31:04;1.90;82.80
42965;DHT22;28604;51.204;22.552;2023-02-03T15:33:33;1.80;81.20
42965;DHT22;28604;51.204;22.552;2023-02-03T15:36:08;1.80;81.30
42965;DHT22;28604;51.204;22.552;2023-02-03T15:38:43;1.80;81.70
42965;DHT22;28604;51.204;22.552;2023-02-03T15:41:21;1.80;82.00
42965;DHT22;28604;51.204;22.552;2023-02-03T15:43:53;1.90;80.90
42965;DHT22;28604;51.204;22.552;2023-02-03T15:51:39;1.60;82.00
42965;DHT22;28604;51.204;22.552;2023-02-03T15:54:29;1.60;82.50
42965;DHT22;28604;51.204;22.552;2023-02-03T15:57:01;1.70;82.30
42965;DHT22;28604;51.204;22.552;2023-02-03T15:59:41;1.70;82.90
42965;DHT22;28604;51.204;22.552;2023-02-03T16:02:15;1.80;82.40
42965;DHT22;28604;51.204;22.552;2023-02-03T16:04:42;1.70;81.20
42965;DHT22;28604;51.204;22.552;2023-02-03T16:07:21;1.60;82.60
42965;DHT22;28604;51.204;22.552;2023-02-03T16:09:51;1.60;82.90
42965;DHT22;28604;51.204;22.552;2023-02-03T16:12:29;1.60;82.70
42965;DHT22;28604;51.204;22.552;2023-02-03T16:14:59;1.60;82.40
42965;DHT22;28604;51.204;22.552;2023-02-03T16:17:36;1.60;83.30
42965;DHT22;28604;51.204;22.552;2023-02-03T16:20:25;1.70;83.40
42965;DHT22;28604;51.204;22.552;2023-02-03T16:23:03;1.60;83.80
42965;DHT22;28604;51.204;22.552;2023-02-03T16:25:31;1.60;84.40
42965;DHT22;28604;51.204;22.552;2023-02-03T16:28:23;1.60;84.70
42965;DHT22;28604;51.204;22.552;2023-02-03T16:31:15;1.60;85.10
42965;DHT22;28604;51.204;22.552;2023-02-03T16:34:04;1.50;85.70
42965;DHT22;28604;51.204;22.552;2023-02-03T16:36:53;1.50;86.90
42965;DHT22;28604;51.204;22.552;2023-02-03T16:39:38;1.50;87.20
42965;DHT22;28604;51.204;22.552;2023-02-03T16:42:22;1.50;88.00
42965;DHT22;28604;51.204;22.552;2023-02-03T16:45:14;1.50;88.70
42965;DHT22;28604;51.204;22.552;2023-02-03T16:48:00;1.50;88.40
42965;DHT22;28604;51.204;22.552;2023-02-03T16:50:45;1.40;89.10
42965;DHT22;28604;51.204;22.552;2023-02-03T16:53:23;1.30;89.90
42965;DHT22;28604;51.204;22.552;2023-02-03T16:55:51;1.20;90.50
42965;DHT22;28604;51.204;22.552;2023-02-03T16:58:18;1.30;90.30
42965;DHT22;28604;51.204;22.552;2023-02-03T17:00:46;1.10;90.60
42965;DHT22;28604;51.204;22.552;2023-02-03T17:03:15;1.10;90.90
42965;DHT22;28604;51.204;22.552;2023-02-03T17:05:43;1.10;90.70
42965;DHT22;28604;51.204;22.552;2023-02-03T17:08:10;1.10;90.90
42965;DHT22;28604;51.204;22.552;2023-02-03T17:10:37;1.10;91.10
42965;DHT22;28604;51.204;22.552;2023-02-03T17:13:04;1.10;91.30
42965;DHT22;28604;51.204;22.552;2023-02-03T17:15:31;1.10;91.40
42965;DHT22;28604;51.204;22.552;2023-02-03T17:17:57;1.20;91.10
42965;DHT22;28604;51.204;22.552;2023-02-03T17:20:23;1.20;91.00
42965;DHT22;28604;51.204;22.552;2023-02-03T17:22:49;1.10;91.60
42965;DHT22;28604;51.204;22.552;2023-02-03T17:25:20;1.10;91.60
42965;DHT22;28604;51.204;22.552;2023-02-03T17:27:46;1.30;91.60
42965;DHT22;28604;51.204;22.552;2023-02-03T17:30:13;1.20;91.20
42965;DHT22;28604;51.204;22.552;2023-02-03T17:32:39;1.20;91.10
42965;DHT22;28604;51.204;22.552;2023-02-03T17:35:05;1.20;90.70
42965;DHT22;28604;51.204;22.552;2023-02-03T17:37:32;1.20;90.90
42965;DHT22;28604;51.204;22.552;2023-02-03T17:39:59;1.10;90.90
42965;DHT22;28604;51.204;22.552;2023-02-03T17:42:25;1.00;91.10
42965;DHT22;28604;51.204;22.552;2023-02-03T17:44:51;1.00;91.00
42965;DHT22;28604;51.204;22.552;2023-02-03T17:47:16;0.90;91.10
42965;DHT22;28604;51.204;22.552;2023-02-03T17:49:43;0.90;91.30